Time;durP1;ratioP1;P1;durP2;ratioP2;P2;SDS_P1;SDS_P2;PMS_P1;PMS_P2;Temp;Humidity;BMP_temperature;BMP_pressure;BME280_temperature;BME280_humidity;BME280_pressure;Samples;Min_cycle;Max_cycle;Signal;HPM_P1;HPM_P2
2023/10/13 00:01:11;;;;;;;20.85;9.85;;;16.70;99.90;;;;;;5019812;28;20447;-56
2023/10/13 00:03:37;;;;;;;26.23;9.68;;;16.70;99.90;;;;;;5022284;28;20388;-56
2023/10/13 00:06:06;;;;;;;18.45;10.30;;;16.60;99.90;;;;;;5017566;28;20038;-58
2023/10/13 00:08:32;;;;;;;15.05;8.80;;;16.70;99.90;;;;;;5017375;28;20685;-60
2023/10/13 00:10:59;;;;;;;18.05;10.27;;;16.70;99.90;;;;;;5018397;28;20037;-60
2023/10/13 00:13:27;;;;;;;24.40;10.73;;;16.70;99.90;;;;;;5015564;28;20040;-57
2023/10/13 00:15:57;;;;;;;17.83;10.05;;;16.70;99.90;;;;;;5020242;28;20038;-58
2023/10/13 00:18:27;;;;;;;16.80;9.27;;;16.70;99.90;;;;;;5022639;28;20471;-59
2023/10/13 00:20:56;;;;;;;24.48;10.80;;;16.70;99.90;;;;;;5016167;28;20033;-58
2023/10/13 00:23:22;;;;;;;14.23;9.48;;;16.70;99.90;;;;;;5018413;28;20144;-56
2023/10/13 00:25:56;;;;;;;17.02;10.05;;;16.70;99.90;;;;;;5024587;28;20044;-60
2023/10/13 00:28:24;;;;;;;25.20;10.20;;;16.70;99.90;;;;;;5025269;28;20013;-58
2023/10/13 00:30:52;;;;;;;16.15;9.65;;;16.70;99.90;;;;;;5026696;28;20030;-55
2023/10/13 00:33:21;;;;;;;15.70;10.48;;;16.70;99.90;;;;;;5025076;28;20017;-54
2023/10/13 00:35:47;;;;;;;17.15;9.75;;;16.70;99.90;;;;;;5022774;28;20045;-55
2023/10/13 00:38:13;;;;;;;17.90;9.55;;;16.70;99.90;;;;;;5016003;28;20057;-60
2023/10/13 00:40:43;;;;;;;17.33;10.15;;;16.70;99.90;;;;;;5018067;28;20074;-59
2023/10/13 00:46:12;;;;;;;18.00;9.93;;;16.70;99.90;;;;;;5019557;28;20626;-57
2023/10/13 00:48:45;;;;;;;19.23;9.40;;;16.70;99.90;;;;;;5019130;28;20022;-56
2023/10/13 00:51:22;;;;;;;21.80;10.15;;;16.70;99.90;;;;;;5019448;28;20029;-57
2023/10/13 00:53:48;;;;;;;17.40;10.80;;;16.70;99.90;;;;;;5018992;28;20041;-58
2023/10/13 00:56:26;;;;;;;20.75;10.63;;;16.70;99.90;;;;;;5022839;28;20029;-59
2023/10/13 00:58:54;;;;;;;27.75;11.05;;;16.70;99.90;;;;;;5018536;28;20022;-56
2023/10/13 01:01:28;;;;;;;20.83;9.95;;;16.70;99.90;;;;;;5019294;28;20030;-58
2023/10/13 01:04:02;;;;;;;25.17;11.18;;;16.70;99.90;;;;;;5023564;28;20035;-59
2023/10/13 01:06:28;;;;;;;26.73;11.47;;;16.70;99.90;;;;;;5021519;28;20018;-58
2023/10/13 01:09:24;;;;;;;18.77;10.10;;;16.60;99.90;;;;;;5023577;28;20499;-58
2023/10/13 01:11:54;;;;;;;16.10;10.70;;;16.70;99.90;;;;;;5018573;28;20500;-58
2023/10/13 01:14:20;;;;;;;25.23;10.48;;;16.70;99.90;;;;;;5023363;28;20107;-61
2023/10/13 01:16:52;;;;;;;20.23;10.23;;;16.70;99.90;;;;;;5021284;28;20025;-59
2023/10/13 01:19:24;;;;;;;21.88;10.48;;;16.70;99.90;;;;;;5021293;28;20120;-57
2023/10/13 01:21:54;;;;;;;17.90;10.05;;;16.70;99.90;;;;;;5017480;28;20029;-58
2023/10/13 01:24:23;;;;;;;26.50;10.82;;;16.70;99.90;;;;;;5023085;28;20049;-59
2023/10/13 01:26:51;;;;;;;21.70;10.98;;;16.80;99.90;;;;;;5016745;28;20161;-60
2023/10/13 01:29:18;;;;;;;16.80;10.38;;;16.70;99.90;;;;;;5023676;28;20030;-60
2023/10/13 01:31:45;;;;;;;18.75;10.68;;;16.70;99.90;;;;;;5019601;28;20292;-58
2023/10/13 01:34:21;;;;;;;20.48;10.90;;;16.70;99.90;;;;;;5019346;28;20041;-60
2023/10/13 01:36:51;;;;;;;21.67;11.23;;;16.70;99.90;;;;;;5018378;28;20034;-60
2023/10/13 01:39:21;;;;;;;28.70;12.40;;;16.70;99.90;;;;;;5021743;28;20088;-60
2023/10/13 01:41:53;;;;;;;23.70;11.13;;;16.70;99.90;;;;;;5017087;28;20403;-60
2023/10/13 01:44:19;;;;;;;19.65;11.77;;;16.70;99.90;;;;;;5021494;28;20415;-60
2023/10/13 01:46:47;;;;;;;20.50;11.73;;;16.70;99.90;;;;;;5013794;28;20026;-60
2023/10/13 01:49:15;;;;;;;21.67;12.23;;;16.70;99.90;;;;;;5018986;28;20032;-60
2023/10/13 01:51:41;;;;;;;23.58;11.90;;;16.70;99.90;;;;;;5029939;28;20026;-60
2023/10/13 01:54:11;;;;;;;25.13;11.85;;;16.70;99.90;;;;;;5020910;28;20479;-60
2023/10/13 01:56:42;;;;;;;19.05;11.85;;;16.70;99.90;;;;;;5021315;28;20408;-60
2023/10/13 01:59:09;;;;;;;25.80;12.23;;;16.70;99.90;;;;;;5017411;28;20046;-58
2023/10/13 02:01:34;;;;;;;25.58;12.45;;;16.80;99.90;;;;;;5019696;28;20487;-59
2023/10/13 02:04:04;;;;;;;26.98;13.68;;;16.70;99.90;;;;;;5015681;28;20088;-59
2023/10/13 02:06:34;;;;;;;22.10;13.52;;;16.70;99.90;;;;;;5019552;28;22209;-59
2023/10/13 02:09:12;;;;;;;24.52;12.70;;;16.70;99.90;;;;;;5017043;28;20080;-59
2023/10/13 02:11:43;;;;;;;30.25;13.77;;;16.80;99.90;;;;;;5019161;28;20033;-58
2023/10/13 02:14:11;;;;;;;25.88;12.27;;;16.70;99.90;;;;;;5018735;28;20147;-60
2023/10/13 02:16:37;;;;;;;25.45;13.50;;;16.80;99.90;;;;;;5024145;28;20306;-59
2023/10/13 02:19:05;;;;;;;26.30;13.45;;;16.80;99.90;;;;;;5022154;28;20026;-60
2023/10/13 02:21:39;;;;;;;25.92;12.35;;;16.80;99.90;;;;;;5018586;28;20029;-59
2023/10/13 02:24:17;;;;;;;24.83;13.02;;;16.80;99.90;;;;;;5022713;28;20502;-57
2023/10/13 02:26:44;;;;;;;27.67;14.77;;;16.80;99.90;;;;;;5023720;28;20365;-60
2023/10/13 02:29:12;;;;;;;25.83;14.63;;;16.80;99.90;;;;;;5020983;28;20022;-60
2023/10/13 02:31:39;;;;;;;30.17;14.02;;;16.70;99.90;;;;;;5025336;28;20021;-60
2023/10/13 02:34:09;;;;;;;24.90;13.73;;;16.80;99.90;;;;;;5028521;28;20473;-60
2023/10/13 02:36:46;;;;;;;25.33;14.55;;;16.80;99.90;;;;;;5027883;28;20083;-57
2023/10/13 02:39:13;;;;;;;30.92;14.18;;;16.80;99.90;;;;;;5023583;28;20026;-60
2023/10/13 02:41:41;;;;;;;22.30;12.65;;;16.80;99.90;;;;;;5020674;28;20116;-57
2023/10/13 02:44:08;;;;;;;27.50;13.85;;;16.80;99.90;;;;;;5024003;28;20032;-59
2023/10/13 02:46:39;;;;;;;24.33;13.73;;;16.80;99.90;;;;;;5027873;28;20029;-60
2023/10/13 02:49:11;;;;;;;21.17;11.57;;;16.80;99.90;;;;;;5018834;28;20029;-60
2023/10/13 02:51:43;;;;;;;27.50;13.40;;;16.90;99.90;;;;;;5027904;28;20017;-60
2023/10/13 02:54:18;;;;;;;30.75;14.55;;;16.90;99.90;;;;;;5026991;28;20029;-60
2023/10/13 02:56:56;;;;;;;19.67;11.70;;;16.90;99.90;;;;;;5022148;28;20495;-58
2023/10/13 02:59:34;;;;;;;26.85;13.93;;;16.90;99.90;;;;;;5020574;28;20034;-61
2023/10/13 03:02:06;;;;;;;21.00;13.80;;;16.90;99.90;;;;;;5019140;28;20116;-60
2023/10/13 03:04:32;;;;;;;26.23;14.80;;;16.90;99.90;;;;;;5022871;28;20037;-58
2023/10/13 03:06:59;;;;;;;24.02;13.65;;;17.00;99.90;;;;;;5021590;28;20026;-60
2023/10/13 03:09:25;;;;;;;25.30;13.48;;;17.00;99.90;;;;;;5022900;28;20072;-60
2023/10/13 03:11:51;;;;;;;26.35;15.35;;;17.00;99.90;;;;;;5027357;28;20029;-59
2023/10/13 03:14:26;;;;;;;26.17;13.75;;;17.10;99.90;;;;;;5025319;28;20044;-57
2023/10/13 03:16:53;;;;;;;24.08;14.13;;;17.10;99.90;;;;;;5018709;28;20055;-60
2023/10/13 03:19:19;;;;;;;22.75;14.35;;;17.10;99.90;;;;;;5021414;28;20068;-60
2023/10/13 03:21:54;;;;;;;23.73;13.32;;;17.10;99.90;;;;;;5016041;28;20061;-60
2023/10/13 03:24:33;;;;;;;20.83;12.63;;;17.10;99.90;;;;;;5020294;28;20516;-60
2023/10/13 03:27:08;;;;;;;28.23;13.63;;;17.10;99.90;;;;;;5019136;28;20037;-60
2023/10/13 03:29:44;;;;;;;25.73;12.80;;;17.10;99.90;;;;;;5022687;28;20017;-58
2023/10/13 03:32:11;;;;;;;24.33;13.40;;;17.10;99.90;;;;;;5020027;28;20088;-59
2023/10/13 03:34:49;;;;;;;25.23;13.23;;;17.10;99.90;;;;;;5023555;28;20033;-58
2023/10/13 03:37:35;;;;;;;23.85;12.90;;;17.10;99.90;;;;;;5025743;28;20054;-58
2023/10/13 03:40:33;;;;;;;21.52;14.00;;;17.10;99.90;;;;;;5024827;28;20034;-55
2023/10/13 03:43:04;;;;;;;21.13;13.60;;;17.10;99.90;;;;;;5020821;28;20377;-59
2023/10/13 03:45:37;;;;;;;22.83;13.40;;;17.10;99.90;;;;;;5026524;28;20028;-57
2023/10/13 03:48:08;;;;;;;20.58;12.65;;;17.10;99.90;;;;;;5025004;28;20067;-60
2023/10/13 03:50:36;;;;;;;20.15;11.85;;;17.10;99.90;;;;;;5016743;28;20036;-58
2023/10/13 03:53:02;;;;;;;17.70;11.68;;;17.10;99.90;;;;;;5017033;28;20030;-61
2023/10/13 03:55:29;;;;;;;24.05;12.95;;;17.10;99.90;;;;;;5018987;28;20060;-59
2023/10/13 03:57:54;;;;;;;20.92;11.55;;;17.10;99.90;;;;;;5023566;28;20030;-59
2023/10/13 04:00:27;;;;;;;19.25;12.48;;;17.10;99.90;;;;;;5038285;28;20092;-59
2023/10/13 04:03:07;;;;;;;25.85;13.65;;;17.10;99.90;;;;;;5020456;28;20034;-60
2023/10/13 04:16:51;;;;;;;;;;;17.10;99.90;;;;;;5023743;28;20542;-60
2023/10/13 04:21:42;;;;;;;25.85;13.52;;;17.10;99.90;;;;;;5024234;28;20113;-57
2023/10/13 04:30:47;;;;;;;35.58;15.48;;;17.20;99.90;;;;;;5024517;28;20075;-60
2023/10/13 04:32:38;;;;;;;34.72;15.05;;;17.30;99.90;;;;;;5009912;28;20041;-60
2023/10/13 04:40:58;;;;;;;32.45;15.40;;;17.30;99.90;;;;;;5024037;28;20032;-61
2023/10/13 04:43:33;;;;;;;26.08;15.40;;;17.40;99.90;;;;;;5021346;28;20065;-58
2023/10/13 04:46:14;;;;;;;27.75;14.95;;;17.40;99.90;;;;;;5018854;28;20025;-57
2023/10/13 04:48:40;;;;;;;28.52;15.35;;;17.40;99.90;;;;;;5022398;28;20115;-59
2023/10/13 04:51:34;;;;;;;29.70;15.13;;;17.40;99.90;;;;;;5021980;28;20436;-54
2023/10/13 04:54:00;;;;;;;29.27;14.25;;;17.40;99.90;;;;;;5019107;28;20030;-59
2023/10/13 04:59:35;;;;;;;28.35;14.63;;;17.40;99.90;;;;;;5021672;28;20029;-56
2023/10/13 05:05:21;;;;;;;21.42;14.52;;;17.40;99.90;;;;;;5020268;28;20479;-58
2023/10/13 05:46:49;;;;;;;24.70;13.68;;;17.60;99.90;;;;;;5019061;28;20041;-58
2023/10/13 05:51:47;;;;;;;27.92;14.18;;;17.60;99.90;;;;;;5014740;28;20488;-55
2023/10/13 06:30:01;;;;;;;28.38;13.43;;;17.80;99.90;;;;;;5020013;28;20099;-58
2023/10/13 06:32:27;;;;;;;28.27;12.23;;;17.90;99.90;;;;;;5021016;28;20464;-59
2023/10/13 06:35:05;;;;;;;24.92;12.68;;;17.90;99.90;;;;;;5018316;28;20029;-60
2023/10/13 06:37:31;;;;;;;21.33;13.27;;;17.90;99.90;;;;;;5019843;28;20033;-60
2023/10/13 06:40:05;;;;;;;22.70;11.95;;;17.90;99.90;;;;;;5019460;28;20112;-60
2023/10/13 06:42:34;;;;;;;;;;;17.90;99.90;;;;;;5018998;28;20030;-60
2023/10/13 06:45:08;;;;;;;23.17;12.05;;;18.00;99.90;;;;;;5015683;28;20279;-60
2023/10/13 06:47:45;;;;;;;24.55;12.13;;;18.00;99.90;;;;;;5012013;28;20104;-60
2023/10/13 06:50:15;;;;;;;26.13;13.27;;;18.00;99.90;;;;;;5017521;28;20164;-59
2023/10/13 06:52:44;;;;;;;20.88;11.73;;;18.10;99.90;;;;;;5015005;28;20037;-60
2023/10/13 06:55:16;;;;;;;16.73;9.98;;;18.10;99.90;;;;;;5021336;28;20178;-59
2023/10/13 06:57:44;;;;;;;21.52;11.52;;;18.10;99.90;;;;;;5022237;28;20028;-54
2023/10/13 07:00:19;;;;;;;21.50;12.25;;;18.10;99.90;;;;;;5024197;28;20103;-60
2023/10/13 07:02:46;;;;;;;23.10;11.48;;;18.20;99.90;;;;;;5023078;28;20503;-60
2023/10/13 07:05:13;;;;;;;27.25;11.65;;;18.20;99.90;;;;;;5025860;28;20519;-58
2023/10/13 07:07:40;;;;;;;23.45;12.05;;;18.20;99.90;;;;;;5022104;28;20024;-60
2023/10/13 07:10:09;;;;;;;20.10;11.15;;;18.30;99.90;;;;;;5016207;28;20022;-59
2023/10/13 07:12:34;;;;;;;26.02;11.65;;;18.30;99.90;;;;;;5023175;28;20026;-59
2023/10/13 07:17:45;;;;;;;23.37;10.77;;;18.30;99.90;;;;;;5022382;28;20038;-55
2023/10/13 07:20:23;;;;;;;21.77;10.55;;;18.40;99.90;;;;;;5020899;28;20018;-59
2023/10/13 07:23:06;;;;;;;22.67;10.23;;;18.40;99.90;;;;;;5025856;28;20399;-59
2023/10/13 07:25:33;;;;;;;29.33;10.70;;;18.50;99.90;;;;;;5019418;28;20041;-60
2023/10/13 07:28:08;;;;;;;29.60;11.93;;;18.50;99.90;;;;;;5016406;28;20022;-56
2023/10/13 07:30:41;;;;;;;25.83;10.88;;;18.50;99.90;;;;;;5018260;28;20200;-57
2023/10/13 07:33:10;;;;;;;24.75;11.65;;;18.60;99.90;;;;;;5024225;28;20033;-57
2023/10/13 07:35:37;;;;;;;26.98;10.85;;;18.60;99.90;;;;;;5017907;28;20025;-54
2023/10/13 07:38:07;;;;;;;21.50;10.45;;;18.60;99.90;;;;;;5022996;28;20076;-57
2023/10/13 07:43:03;;;;;;;24.50;10.15;;;18.70;99.90;;;;;;5018492;28;20025;-57
2023/10/13 07:45:38;;;;;;;36.90;11.35;;;18.70;99.90;;;;;;5015735;28;20014;-57
2023/10/13 07:48:40;;;;;;;26.00;10.32;;;18.70;99.90;;;;;;5015575;28;20018;-56
2023/10/13 07:51:04;;;;;;;31.33;11.32;;;18.70;99.90;;;;;;5015434;28;20949;-56
2023/10/13 07:53:40;;;;;;;30.55;12.45;;;18.70;99.90;;;;;;5018630;28;20025;-57
2023/10/13 07:56:08;;;;;;;24.65;10.82;;;18.80;99.90;;;;;;5021450;28;20053;-56
2023/10/13 07:58:35;;;;;;;32.75;10.85;;;18.70;99.90;;;;;;5012089;28;20460;-56
2023/10/13 08:01:06;;;;;;;19.85;10.52;;;18.80;99.90;;;;;;5014751;28;20079;-58
2023/10/13 08:03:44;;;;;;;33.33;11.55;;;18.90;99.90;;;;;;5014673;28;20113;-57
2023/10/13 08:08:42;;;;;;;27.67;10.30;;;19.00;99.90;;;;;;5014066;28;20385;-55
2023/10/13 08:11:25;;;;;;;24.00;10.13;;;19.10;99.90;;;;;;5018245;28;20423;-57
2023/10/13 08:13:54;;;;;;;33.75;10.80;;;19.10;99.90;;;;;;5012067;28;20026;-55
2023/10/13 08:16:23;;;;;;;28.40;8.82;;;19.20;99.90;;;;;;5014144;28;20073;-56
2023/10/13 08:18:52;;;;;;;23.83;10.20;;;19.30;99.90;;;;;;5018535;28;20026;-58
2023/10/13 08:21:25;;;;;;;18.15;9.77;;;19.30;99.90;;;;;;5013255;28;20193;-59
2023/10/13 08:26:29;;;;;;;21.80;9.27;;;19.30;99.90;;;;;;5019228;28;20025;-58
2023/10/13 08:29:49;;;;;;;21.17;9.15;;;19.40;99.90;;;;;;5017651;28;20295;-53
2023/10/13 08:48:08;;;;;;;26.60;8.02;;;19.50;99.90;;;;;;5014839;28;20492;-59
2023/10/13 08:50:48;;;;;;;21.45;7.18;;;19.60;99.90;;;;;;5019615;28;20029;-59
2023/10/13 09:06:46;;;;;;;27.33;6.55;;;20.00;99.90;;;;;;5016078;28;20534;-57
2023/10/13 09:09:26;;;;;;;13.95;5.97;;;20.10;99.90;;;;;;5017692;28;20026;-52
2023/10/13 09:12:08;;;;;;;23.00;7.72;;;20.20;99.90;;;;;;5024979;28;20021;-57
2023/10/13 09:14:43;;;;;;;22.95;7.05;;;20.20;99.90;;;;;;5013972;28;20554;-56
2023/10/13 09:19:47;;;;;;;17.30;6.28;;;20.30;99.90;;;;;;5019271;28;20120;-55
2023/10/13 09:22:35;;;;;;;16.75;6.65;;;20.40;99.90;;;;;;5014932;28;20029;-56
2023/10/13 09:25:02;;;;;;;21.30;7.35;;;20.40;99.90;;;;;;5023820;28;20025;-56
2023/10/13 09:27:37;;;;;;;20.45;7.30;;;20.40;99.90;;;;;;5025905;28;20488;-53
2023/10/13 09:30:18;;;;;;;18.15;7.97;;;20.40;99.90;;;;;;5017918;28;20116;-58
2023/10/13 09:32:48;;;;;;;16.92;7.47;;;20.50;99.90;;;;;;5017236;28;20055;-55
2023/10/13 09:35:27;;;;;;;19.92;8.30;;;20.60;99.90;;;;;;5020155;28;20293;-58
2023/10/13 09:37:59;;;;;;;15.90;6.95;;;20.80;99.90;;;;;;5026633;28;20025;-56
2023/10/13 09:40:25;;;;;;;20.10;7.68;;;21.10;99.90;;;;;;5026791;28;20022;-56
2023/10/13 09:42:52;;;;;;;17.38;7.25;;;21.30;99.90;;;;;;5021440;28;20021;-54
2023/10/13 09:45:18;;;;;;;17.50;7.65;;;21.50;99.90;;;;;;5023235;28;20060;-52
2023/10/13 09:47:52;;;;;;;20.98;7.38;;;21.50;99.90;;;;;;5013536;28;20033;-54
2023/10/13 09:50:24;;;;;;;;;;;21.70;99.90;;;;;;5023226;28;20107;-58
2023/10/13 09:52:52;;;;;;;19.13;7.38;;;21.70;99.90;;;;;;5012201;28;20272;-57
2023/10/13 09:55:29;;;;;;;18.63;7.05;;;21.80;99.90;;;;;;5013476;28;20061;-57
2023/10/13 09:58:10;;;;;;;16.40;7.97;;;22.00;99.90;;;;;;5018673;28;20033;-56
2023/10/13 10:06:06;;;;;;;20.13;7.60;;;22.10;99.90;;;;;;5023132;28;20036;-57
2023/10/13 10:08:33;;;;;;;21.23;7.93;;;22.10;99.90;;;;;;5018177;28;20430;-57
2023/10/13 10:11:31;;;;;;;16.77;7.90;;;22.10;99.90;;;;;;5024846;28;20022;-57
2023/10/13 10:14:12;;;;;;;13.20;6.65;;;22.10;99.90;;;;;;5021012;28;20033;-56
2023/10/13 10:16:59;;;;;;;22.83;7.93;;;22.20;99.90;;;;;;5017685;28;20018;-55
2023/10/13 10:19:30;;;;;;;24.70;7.90;;;22.20;99.90;;;;;;5026920;28;20113;-55
2023/10/13 10:22:17;;;;;;;21.73;8.00;;;22.30;99.90;;;;;;5014786;28;20547;-55
2023/10/13 10:24:44;;;;;;;20.10;7.28;;;22.40;99.90;;;;;;5026895;28;20104;-59
2023/10/13 10:27:15;;;;;;;27.08;7.88;;;22.60;99.90;;;;;;5028149;28;20484;-58
2023/10/13 10:29:53;;;;;;;23.90;7.38;;;22.80;99.90;;;;;;5028933;28;20026;-59
2023/10/13 10:32:19;;;;;;;20.35;8.50;;;22.90;99.90;;;;;;5020068;28;20025;-58
2023/10/13 10:34:45;;;;;;;17.10;7.65;;;22.90;99.90;;;;;;5018710;28;20044;-56
2023/10/13 10:37:12;;;;;;;22.48;8.43;;;23.00;99.90;;;;;;5016557;28;20029;-52
2023/10/13 10:39:47;;;;;;;21.80;8.48;;;23.10;99.90;;;;;;5022889;28;20038;-59
2023/10/13 10:42:23;;;;;;;16.85;7.68;;;23.20;99.90;;;;;;5023198;28;20436;-58
2023/10/13 10:45:05;;;;;;;20.00;7.80;;;23.20;99.90;;;;;;5021062;28;20037;-56
2023/10/13 10:47:31;;;;;;;19.73;7.22;;;23.10;99.90;;;;;;5027454;28;20014;-58
2023/10/13 10:49:59;;;;;;;18.65;8.25;;;23.10;99.90;;;;;;5019832;28;20041;-58
2023/10/13 10:52:27;;;;;;;15.73;7.65;;;23.00;99.90;;;;;;5032337;28;20386;-58
2023/10/13 10:54:59;;;;;;;21.58;8.30;;;22.90;99.90;;;;;;5022252;28;20033;-58
2023/10/13 10:57:28;;;;;;;24.00;8.98;;;22.90;99.90;;;;;;5025320;28;20025;-55
2023/10/13 11:00:09;;;;;;;21.00;8.48;;;22.80;99.90;;;;;;5024118;28;20029;-58
2023/10/13 11:02:34;;;;;;;19.25;9.05;;;22.80;99.90;;;;;;5029138;28;20065;-56
2023/10/13 11:05:01;;;;;;;22.25;7.78;;;22.90;99.90;;;;;;5018266;28;20116;-57
2023/10/13 11:07:28;;;;;;;18.52;7.70;;;22.90;99.90;;;;;;5023451;28;20021;-59
2023/10/13 11:10:07;;;;;;;18.83;7.65;;;22.90;99.90;;;;;;5020723;28;20025;-59
2023/10/13 11:12:34;;;;;;;17.60;7.88;;;22.90;99.90;;;;;;5023058;28;20061;-58
2023/10/13 11:15:33;;;;;;;13.88;6.88;;;23.10;99.90;;;;;;5025151;28;20098;-59
2023/10/13 11:17:58;;;;;;;19.27;7.38;;;23.10;99.90;;;;;;5021033;28;20048;-56
2023/10/13 11:20:33;;;;;;;17.20;6.75;;;23.10;99.90;;;;;;5024052;28;20026;-59
2023/10/13 11:23:00;;;;;;;17.73;6.97;;;23.20;99.90;;;;;;5015961;28;20037;-58
2023/10/13 11:25:30;;;;;;;15.18;7.40;;;23.30;99.90;;;;;;5024614;28;20096;-56
2023/10/13 11:27:57;;;;;;;14.27;6.22;;;23.30;99.90;;;;;;5016871;28;20029;-57
2023/10/13 11:30:40;;;;;;;18.02;6.47;;;23.30;99.90;;;;;;5015598;28;21380;-57
2023/10/13 11:33:08;;;;;;;24.90;7.30;;;23.40;99.90;;;;;;5018069;28;20040;-58
2023/10/13 11:41:21;;;;;;;18.30;6.75;;;23.50;99.90;;;;;;5028135;28;20037;-57
2023/10/13 11:49:48;;;;;;;17.55;6.30;;;23.60;99.90;;;;;;5020154;28;20018;-55
2023/10/13 11:52:15;;;;;;;18.08;6.45;;;23.60;99.90;;;;;;5023995;28;20076;-57
2023/10/13 11:54:42;;;;;;;22.02;7.10;;;23.70;99.90;;;;;;5024895;28;20030;-56
2023/10/13 11:57:08;;;;;;;17.27;5.78;;;23.70;99.90;;;;;;5031231;28;20053;-55
2023/10/13 11:59:40;;;;;;;19.60;6.90;;;23.80;99.90;;;;;;5026479;28;20029;-57
2023/10/13 12:04:59;;;;;;;13.07;6.65;;;23.80;99.90;;;;;;5021003;28;20091;-59
2023/10/13 12:10:16;;;;;;;;;;;23.70;99.90;;;;;;5017044;28;20037;-57
2023/10/13 12:12:44;;;;;;;20.02;6.25;;;23.60;99.90;;;;;;5027157;28;19909;-56
2023/10/13 12:15:14;;;;;;;19.73;6.05;;;23.60;99.90;;;;;;5022869;28;20029;-51
2023/10/13 12:17:44;;;;;;;12.90;6.25;;;23.50;99.90;;;;;;5026779;28;20030;-56
2023/10/13 12:20:10;;;;;;;17.48;6.82;;;23.50;99.90;;;;;;5022037;28;20053;-56
2023/10/13 12:22:39;;;;;;;15.32;6.47;;;23.50;99.90;;;;;;5029883;28;20034;-58
2023/10/13 12:25:24;;;;;;;15.20;6.25;;;23.50;99.90;;;;;;5026293;28;20451;-58
2023/10/13 12:27:56;;;;;;;18.83;7.13;;;23.50;99.90;;;;;;5024604;28;20030;-56
2023/10/13 12:30:48;;;;;;;19.85;7.88;;;23.40;99.90;;;;;;5022364;28;20572;-58
2023/10/13 12:33:16;;;;;;;21.38;6.30;;;23.40;99.90;;;;;;5023329;28;20021;-57
2023/10/13 12:36:03;;;;;;;14.18;6.07;;;23.40;99.90;;;;;;5022872;28;20026;-57
2023/10/13 12:49:49;;;;;;;21.48;7.05;;;23.30;99.90;;;;;;5025739;28;19916;-55
2023/10/13 12:52:25;;;;;;;20.65;6.45;;;23.30;99.90;;;;;;5020466;28;20021;-55
2023/10/13 12:57:23;;;;;;;18.80;6.30;;;23.40;99.90;;;;;;5023309;28;20048;-58
2023/10/13 12:59:54;;;;;;;16.35;5.78;;;23.40;99.90;;;;;;5020546;28;20683;-57
2023/10/13 13:02:21;;;;;;;17.58;6.28;;;23.40;99.90;;;;;;5020794;28;20084;-54
2023/10/13 13:04:51;;;;;;;21.77;6.18;;;23.40;99.90;;;;;;5014501;28;20044;-57
2023/10/13 13:07:16;;;;;;;18.35;5.63;;;23.40;99.90;;;;;;5014939;28;20057;-53
2023/10/13 13:09:42;;;;;;;17.95;6.25;;;23.40;99.90;;;;;;5022729;28;20049;-55
2023/10/13 13:12:12;;;;;;;22.17;6.47;;;23.40;99.90;;;;;;5020489;28;20037;-57
2023/10/13 13:14:40;;;;;;;17.27;5.57;;;23.50;99.90;;;;;;5026050;28;20025;-55
2023/10/13 13:17:05;;;;;;;12.20;5.78;;;23.60;99.90;;;;;;5015506;28;20025;-59
2023/10/13 13:19:36;;;;;;;22.27;5.68;;;23.50;99.90;;;;;;5028953;28;20025;-56
2023/10/13 13:22:11;;;;;;;23.75;5.97;;;23.60;99.90;;;;;;5015865;28;20025;-58
2023/10/13 13:24:43;;;;;;;24.63;6.63;;;23.50;99.90;;;;;;5023301;28;20044;-58
2023/10/13 13:27:17;;;;;;;23.27;6.20;;;23.50;99.90;;;;;;5024768;28;20022;-56
2023/10/13 13:29:45;;;;;;;;;;;23.60;99.90;;;;;;5027636;28;20053;-55
2023/10/13 13:32:45;;;;;;;17.15;6.00;;;23.70;99.90;;;;;;5024162;28;20462;-57
2023/10/13 13:35:05;;;;;;;22.35;6.00;;;23.70;99.90;;;;;;5022669;28;20439;-58
2023/10/13 13:37:31;;;;;;;21.20;6.18;;;23.70;99.90;;;;;;5023454;28;21423;-57
2023/10/13 13:40:03;;;;;;;21.45;6.18;;;23.70;99.90;;;;;;5020410;28;20037;-59
2023/10/13 13:42:36;;;;;;;20.55;6.75;;;23.70;99.90;;;;;;5026316;28;20021;-59
2023/10/13 13:45:02;;;;;;;16.63;6.07;;;23.80;99.90;;;;;;5023282;28;20103;-55
2023/10/13 13:47:28;;;;;;;18.08;7.38;;;23.70;99.90;;;;;;5014669;28;20030;-58
2023/10/13 13:49:55;;;;;;;24.17;6.18;;;23.70;99.90;;;;;;5018949;28;20324;-57
2023/10/13 13:52:33;;;;;;;21.50;5.97;;;23.80;99.90;;;;;;5025540;28;20612;-58
2023/10/13 13:55:02;;;;;;;18.27;6.55;;;23.80;99.90;;;;;;5019752;28;20590;-58
2023/10/13 13:57:29;;;;;;;20.15;6.22;;;23.80;99.90;;;;;;5021114;28;20029;-57
2023/10/13 13:59:57;;;;;;;20.83;6.30;;;23.90;99.90;;;;;;5021101;28;20034;-58
2023/10/13 14:02:23;;;;;;;23.35;7.43;;;23.90;99.90;;;;;;5021784;28;20492;-55
2023/10/13 14:04:52;;;;;;;19.05;6.68;;;23.90;99.90;;;;;;5021815;28;20037;-57
2023/10/13 14:07:24;;;;;;;20.42;5.72;;;23.90;99.90;;;;;;5016822;28;20068;-53
2023/10/13 14:09:52;;;;;;;22.25;6.90;;;23.90;99.90;;;;;;5016756;28;20032;-58
2023/10/13 14:12:41;;;;;;;19.73;5.93;;;24.00;99.90;;;;;;5017566;28;20088;-56
2023/10/13 14:15:19;;;;;;;20.30;5.55;;;24.00;99.90;;;;;;5017809;28;20523;-54
2023/10/13 14:17:46;;;;;;;19.33;5.93;;;23.90;99.90;;;;;;5019089;28;20145;-55
2023/10/13 14:20:21;;;;;;;16.80;6.10;;;23.90;99.90;;;;;;5022494;28;20113;-57
2023/10/13 14:22:49;;;;;;;18.58;5.90;;;23.90;99.90;;;;;;5025368;28;20041;-56
2023/10/13 14:25:15;;;;;;;18.45;5.40;;;23.90;99.90;;;;;;5023744;28;20029;-57
2023/10/13 14:27:43;;;;;;;23.02;5.78;;;23.70;99.90;;;;;;5022275;28;20383;-57
2023/10/13 14:30:09;;;;;;;13.80;5.40;;;23.60;99.90;;;;;;5023091;28;20033;-58
2023/10/13 14:32:40;;;;;;;18.40;6.65;;;23.60;99.90;;;;;;5019221;28;20028;-58
2023/10/13 14:35:14;;;;;;;19.58;5.57;;;23.60;99.90;;;;;;5014740;28;20101;-57
2023/10/13 14:37:40;;;;;;;;;;;23.60;99.90;;;;;;5017449;28;20037;-56
2023/10/13 14:40:11;;;;;;;21.02;6.70;;;23.70;99.90;;;;;;5022447;28;20387;-57
2023/10/13 14:42:40;;;;;;;18.95;5.43;;;23.70;99.90;;;;;;5020629;28;20403;-58
2023/10/13 14:45:12;;;;;;;23.80;5.97;;;23.60;99.90;;;;;;5022987;28;20500;-57
2023/10/13 14:47:39;;;;;;;16.85;5.63;;;23.60;99.90;;;;;;5021078;28;20026;-59
2023/10/13 14:50:05;;;;;;;14.23;5.28;;;23.60;99.90;;;;;;5020442;28;20459;-58
2023/10/13 14:52:31;;;;;;;21.00;6.07;;;23.50;99.90;;;;;;5019073;28;20403;-58
2023/10/13 14:54:57;;;;;;;17.65;5.75;;;23.50;99.90;;;;;;5016880;28;20029;-58
2023/10/13 14:57:27;;;;;;;20.95;6.32;;;23.50;99.90;;;;;;5020281;28;20022;-58
2023/10/13 14:59:53;;;;;;;15.45;6.65;;;23.50;99.90;;;;;;5022696;28;20048;-59
2023/10/13 15:02:19;;;;;;;16.15;5.15;;;23.50;99.90;;;;;;5020733;28;20040;-58
2023/10/13 15:04:48;;;;;;;17.25;5.38;;;23.50;99.90;;;;;;5021531;28;20096;-58
2023/10/13 15:07:15;;;;;;;19.92;6.00;;;23.40;99.90;;;;;;5017611;28;20380;-58
2023/10/13 15:09:42;;;;;;;17.95;6.28;;;23.40;99.90;;;;;;5022165;28;20033;-57
2023/10/13 15:12:11;;;;;;;20.77;5.80;;;23.40;99.90;;;;;;5021825;28;20022;-58
2023/10/13 15:14:42;;;;;;;16.90;4.30;;;23.40;99.90;;;;;;5021731;28;20033;-54
2023/10/13 15:17:09;;;;;;;17.83;4.93;;;23.40;99.90;;;;;;5017711;28;20500;-56
2023/10/13 15:19:42;;;;;;;16.70;5.57;;;23.40;99.90;;;;;;5022433;28;20036;-56
2023/10/13 15:22:16;;;;;;;21.88;5.63;;;23.30;99.90;;;;;;5027606;28;20064;-58
2023/10/13 15:24:57;;;;;;;12.70;4.55;;;23.30;99.90;;;;;;5022783;28;20124;-53
2023/10/13 15:27:23;;;;;;;11.80;5.18;;;23.20;99.90;;;;;;5023944;28;20021;-55
2023/10/13 15:29:50;;;;;;;19.23;5.32;;;23.20;99.90;;;;;;5022477;28;20026;-56
2023/10/13 15:35:00;;;;;;;17.13;5.18;;;23.20;99.90;;;;;;5020049;28;20539;-58
2023/10/13 15:37:27;;;;;;;14.77;5.45;;;23.20;99.90;;;;;;5020707;28;20045;-55
2023/10/13 15:39:52;;;;;;;17.00;5.40;;;23.20;99.90;;;;;;5024435;28;20075;-55
2023/10/13 15:42:20;;;;;;;12.88;4.88;;;23.20;99.90;;;;;;5020904;28;20675;-56
2023/10/13 15:44:46;;;;;;;20.77;5.85;;;23.10;99.90;;;;;;5024356;28;20038;-58
2023/10/13 15:47:12;;;;;;;15.52;4.90;;;23.10;99.90;;;;;;5026432;28;20030;-57
2023/10/13 15:49:41;;;;;;;14.85;5.80;;;23.10;99.90;;;;;;5025341;28;20018;-56
2023/10/13 15:52:07;;;;;;;14.52;5.32;;;23.10;99.90;;;;;;5030187;28;20029;-53
2023/10/13 15:54:35;;;;;;;15.20;5.63;;;23.00;99.90;;;;;;5020130;28;20062;-56
2023/10/13 15:57:00;;;;;;;17.17;5.60;;;23.00;99.90;;;;;;5027969;28;20039;-53
2023/10/13 15:59:26;;;;;;;16.40;4.90;;;23.00;99.90;;;;;;5022747;28;20034;-56
2023/10/13 16:01:57;;;;;;;19.02;5.18;;;22.90;99.90;;;;;;5015233;28;20565;-57
2023/10/13 16:04:23;;;;;;;13.50;4.88;;;22.90;99.90;;;;;;5019063;28;20083;-54
2023/10/13 16:06:50;;;;;;;21.60;4.75;;;22.90;99.90;;;;;;5020794;28;20030;-57